Etusivu
METAR-TAF:

METAR-TAF

Lentoasemat :

Xi’an Xianyangin kansainvälinen lentoasema

Xi’an, Kiina

Leveyspiiri: 34-26N, Pituuspiiri: 108-45E, korkeus merenpinnasta: 479 m

Tämänhetkinen sää

Tämä raportti tehtiin 43 minuuttia sitten, kello 17.00 UTC
Tuuli 4 kn lännestä, vaihdellen lounaan ja lännen/luoteen välillä
Lämpötila 14°C
Kosteus 67%
Ilmanpaine 1011 hPa
Näkyvyys 10 km tai enemmän
ei pilviä alle 1500 m:ssä eikä cumulonimbus-pilviä

METAR: ZLXY 211700Z 26002MPS 230V300 CAVOK 14/08 Q1011 NOSIG

Aika: 01:43 (17:43 UTC)

Sääennuste

Tämä raportti tehtiin 2 tuntia ja 31 minuuttia sitten, kello 15.12 UTC
Ennuste voimassa 21. päivästä klo 18 UTC - 22. päivään klo 18 UTC
Tuuli 6 kn lännestä/lounaasta
Näkyvyys: 6000 m

TAF: ZLXY 211512Z 2118/2218 24003MPS 6000 NSC TX33/2207Z TN16/2121Z

Säähavainnot ja -ennusteet yli 4000 lentoasemalta (METAR- ja TAF-raportit).

Käytössä olevat sääasemat on merkitty karttaan keltaisilla ja punaisilla pisteillä.

Aseta hiiri pisteen päälle nähdäksesi sääaseman nimen.

Klikkaa sitten nähdäksesi säähavainnot ja -ennusteet.

Kartan vaihtaminen: klikkaa mustalla rastilla varustettuja vihreitä pisteitä, niin voit zoomata sisään; viivalla varustettua vihreää pistettä, niin voit zoomata ulos tai vihreitä nuolia, niin pääset viereisille kartoille.


METAR-TAF: